createdAt,value
2018-06-19T00:01:44.312Z,2.50
2018-06-19T00:04:13.524Z,3.03
2018-06-19T00:06:42.733Z,2.03
2018-06-19T00:09:12.038Z,4.00
2018-06-19T00:11:41.252Z,2.17
2018-06-19T00:14:10.517Z,6.93
2018-06-19T00:16:39.758Z,5.70
2018-06-19T00:19:09.324Z,5.23
2018-06-19T00:21:46.385Z,1.50
2018-06-19T00:24:15.607Z,3.10
2018-06-19T00:26:44.794Z,2.60
2018-06-19T00:29:14.041Z,3.90
2018-06-19T00:31:43.217Z,3.10
2018-06-19T00:34:12.407Z,3.47
2018-06-19T00:36:41.676Z,2.60
2018-06-19T00:39:12.149Z,1.60
2018-06-19T00:41:41.711Z,3.23
2018-06-19T00:44:11.724Z,5.43
2018-06-19T00:46:44.104Z,3.77
2018-06-19T00:49:13.405Z,4.53
2018-06-19T00:51:42.607Z,1.90
2018-06-19T00:54:11.793Z,3.97
2018-06-19T00:56:53.856Z,5.43
2018-06-19T00:59:23.021Z,1.40
2018-06-19T01:01:52.611Z,2.60
2018-06-19T01:04:21.926Z,2.00
2018-06-19T01:06:51.113Z,2.20
2018-06-19T01:09:20.305Z,4.03
2018-06-19T01:11:49.594Z,2.13
2018-06-19T01:14:18.836Z,2.10
2018-06-19T01:16:48.036Z,1.87
2018-06-19T01:19:17.210Z,1.90
2018-06-19T01:21:46.475Z,2.20
2018-06-19T01:24:15.687Z,4.17
2018-06-19T01:26:44.913Z,5.53
2018-06-19T01:29:14.079Z,1.70
2018-06-19T01:31:43.303Z,2.90
2018-06-19T01:34:12.502Z,2.53
2018-06-19T01:36:41.706Z,2.93
2018-06-19T01:39:11.387Z,2.53
2018-06-19T01:41:40.646Z,5.27
2018-06-19T01:44:10.504Z,3.33
2018-06-19T01:46:39.760Z,2.97
2018-06-19T01:49:08.961Z,3.13
2018-06-19T01:51:38.232Z,2.73
2018-06-19T01:54:07.387Z,2.27
2018-06-19T01:56:36.635Z,5.03
2018-06-19T01:59:05.818Z,4.00
2018-06-19T02:01:35.088Z,6.43
2018-06-19T02:04:04.313Z,3.50
2018-06-19T02:06:33.559Z,3.40
2018-06-19T02:09:02.776Z,2.30
2018-06-19T02:11:31.937Z,2.57
2018-06-19T02:14:01.202Z,6.13
2018-06-19T02:16:30.424Z,2.60
2018-06-19T02:18:59.596Z,5.40
2018-06-19T02:21:28.862Z,2.83
2018-06-19T02:23:58.055Z,3.97
2018-06-19T02:26:27.368Z,3.73
2018-06-19T02:28:56.650Z,3.60
2018-06-19T02:31:25.903Z,14.03
2018-06-19T02:33:55.184Z,4.40
2018-06-19T02:36:24.409Z,3.93
2018-06-19T02:38:53.686Z,3.70
2018-06-19T02:41:23.002Z,4.10
2018-06-19T02:43:52.183Z,3.67
2018-06-19T02:46:21.364Z,3.90
2018-06-19T02:48:50.616Z,4.87
2018-06-19T02:51:19.914Z,3.03
2018-06-19T02:53:49.132Z,3.07
2018-06-19T02:56:18.348Z,10.03
2018-06-19T02:58:47.795Z,5.23
2018-06-19T03:01:16.997Z,4.00
2018-06-19T03:03:46.141Z,7.13
2018-06-19T03:06:17.476Z,4.17
2018-06-19T03:08:46.841Z,3.53
2018-06-19T03:11:16.049Z,4.40
2018-06-19T03:13:45.245Z,5.70
2018-06-19T03:16:14.483Z,4.07
2018-06-19T03:18:43.688Z,3.40
2018-06-19T03:21:13.071Z,5.70
2018-06-19T03:23:42.299Z,7.33
2018-06-19T03:26:11.508Z,3.50
2018-06-19T03:28:40.686Z,4.03
2018-06-19T03:31:09.891Z,3.53
2018-06-19T03:33:39.216Z,7.37
2018-06-19T03:36:08.491Z,4.17
2018-06-19T03:38:37.670Z,3.93
2018-06-19T03:41:06.955Z,4.17
2018-06-19T03:43:36.152Z,5.00
2018-06-19T03:46:05.511Z,7.70
2018-06-19T03:48:34.682Z,5.33
2018-06-19T03:51:03.962Z,5.57
2018-06-19T03:53:33.133Z,4.33
2018-06-19T03:56:02.293Z,4.10
2018-06-19T03:58:32.420Z,3.97
2018-06-19T04:01:01.736Z,4.73
2018-06-19T04:03:30.933Z,4.53
2018-06-19T04:06:00.174Z,5.57
2018-06-19T04:08:29.346Z,3.03
2018-06-19T04:10:58.523Z,2.80
2018-06-19T04:13:27.747Z,3.80
2018-06-19T04:15:56.972Z,3.70
2018-06-19T04:18:26.148Z,4.90
2018-06-19T04:20:55.370Z,4.73
2018-06-19T04:23:24.591Z,3.50
2018-06-19T04:25:54.032Z,11.30
2018-06-19T04:28:23.264Z,4.40
2018-06-19T04:30:52.499Z,6.07
2018-06-19T04:33:21.745Z,8.30
2018-06-19T04:35:50.900Z,4.53
2018-06-19T04:38:20.132Z,6.70
2018-06-19T04:40:49.322Z,9.13
2018-06-19T04:43:18.611Z,3.90
2018-06-19T04:45:47.832Z,4.87
2018-06-19T04:48:17.045Z,8.40
2018-06-19T04:50:46.243Z,9.57
2018-06-19T04:53:15.422Z,9.93
2018-06-19T04:55:44.624Z,6.07
2018-06-19T04:58:14.054Z,5.97
2018-06-19T05:00:43.304Z,10.00
2018-06-19T05:03:12.485Z,6.70
2018-06-19T05:05:41.680Z,5.93
2018-06-19T05:08:10.900Z,10.60
2018-06-19T05:10:40.088Z,7.10
2018-06-19T05:13:09.295Z,10.57
2018-06-19T05:15:38.492Z,11.73
2018-06-19T05:18:07.718Z,8.20
2018-06-19T05:20:36.865Z,7.27
2018-06-19T05:23:06.293Z,8.10
2018-06-19T05:25:35.452Z,9.83
2018-06-19T05:28:04.750Z,8.50
2018-06-19T05:30:34.440Z,6.10
2018-06-19T05:33:03.674Z,9.07
2018-06-19T05:35:32.887Z,11.80
2018-06-19T05:38:02.119Z,8.40
2018-06-19T05:40:31.380Z,8.43
2018-06-19T05:43:00.651Z,8.83
2018-06-19T05:45:29.812Z,6.13
2018-06-19T05:47:59.032Z,7.50
2018-06-19T05:50:28.272Z,9.70
2018-06-19T05:52:57.464Z,7.43
2018-06-19T05:55:26.684Z,10.67
2018-06-19T05:57:55.924Z,6.83
2018-06-19T06:00:25.087Z,9.83
2018-06-19T06:02:54.333Z,10.03
2018-06-19T06:05:23.560Z,8.40
2018-06-19T06:07:52.948Z,10.20
2018-06-19T06:10:22.339Z,10.63
2018-06-19T06:12:51.769Z,10.17
2018-06-19T06:15:21.021Z,13.37
2018-06-19T06:17:50.379Z,9.00
2018-06-19T06:20:19.884Z,10.23
2018-06-19T06:22:49.149Z,9.73
2018-06-19T06:25:18.431Z,10.40
2018-06-19T06:27:48.821Z,13.83
2018-06-19T06:30:18.097Z,8.37
2018-06-19T06:32:47.765Z,12.53
2018-06-19T06:35:17.082Z,11.10
2018-06-19T06:37:46.311Z,20.07
2018-06-19T06:40:15.504Z,16.63
2018-06-19T06:42:44.687Z,10.53
2018-06-19T06:45:13.988Z,10.27
2018-06-19T06:47:43.261Z,14.50
2018-06-19T06:50:12.570Z,10.20
2018-06-19T06:52:41.858Z,9.77
2018-06-19T06:55:11.091Z,14.60
2018-06-19T06:57:40.392Z,10.23
2018-06-19T07:00:09.636Z,9.67
2018-06-19T07:02:38.942Z,10.27
2018-06-19T07:05:08.226Z,11.03
2018-06-19T07:07:37.453Z,17.63
2018-06-19T07:10:06.752Z,13.27
2018-06-19T07:12:35.878Z,10.80
2018-06-19T07:15:05.144Z,10.27
2018-06-19T07:17:34.642Z,11.53
2018-06-19T07:20:04.065Z,9.83
2018-06-19T07:22:33.353Z,13.10
2018-06-19T07:25:02.540Z,9.13
2018-06-19T07:27:31.752Z,10.30
2018-06-19T07:30:01.292Z,14.93
2018-06-19T07:32:30.521Z,13.10
2018-06-19T07:34:59.762Z,14.80
2018-06-19T07:37:29.008Z,16.27
2018-06-19T07:39:58.227Z,14.93
2018-06-19T07:42:27.493Z,11.57
2018-06-19T07:44:56.725Z,15.60
2018-06-19T07:47:25.969Z,11.30
2018-06-19T07:49:55.292Z,13.63
2018-06-19T07:52:24.584Z,14.53
2018-06-19T07:54:53.806Z,19.23
2018-06-19T07:57:23.182Z,11.83
2018-06-19T07:59:52.403Z,12.97
2018-06-19T08:02:23.640Z,13.70
2018-06-19T08:04:54.215Z,13.30
2018-06-19T08:07:23.464Z,17.00
2018-06-19T08:09:53.093Z,12.60
2018-06-19T08:12:23.410Z,15.30
2018-06-19T08:14:52.750Z,16.83
2018-06-19T08:17:22.055Z,17.43
2018-06-19T08:19:51.373Z,16.43
2018-06-19T08:22:21.029Z,14.33
2018-06-19T08:24:50.256Z,21.73
2018-06-19T08:27:19.891Z,18.73
2018-06-19T08:29:49.150Z,20.07
2018-06-19T08:32:18.453Z,17.20
2018-06-19T08:34:47.784Z,18.10
2018-06-19T08:37:17.022Z,17.03
2018-06-19T08:39:46.251Z,17.10
2018-06-19T08:42:15.645Z,16.67
2018-06-19T08:44:45.990Z,16.87
2018-06-19T08:47:17.985Z,19.90
2018-06-19T08:49:48.919Z,18.80
2018-06-19T08:52:20.741Z,17.60
2018-06-19T08:54:50.856Z,16.87
2018-06-19T08:57:20.064Z,19.13
2018-06-19T08:59:49.261Z,17.57
2018-06-19T09:02:18.505Z,16.23
2018-06-19T09:04:48.100Z,15.90
2018-06-19T09:07:17.396Z,15.30
2018-06-19T09:09:46.711Z,14.23
2018-06-19T09:12:15.905Z,14.97
2018-06-19T09:14:45.205Z,17.17
2018-06-19T09:17:14.419Z,18.13
2018-06-19T09:19:43.671Z,17.20
2018-06-19T09:22:13.023Z,13.10
2018-06-19T09:24:42.200Z,13.87
2018-06-19T09:27:11.494Z,14.43
2018-06-19T09:29:40.754Z,13.90
2018-06-19T09:32:10.108Z,11.97
2018-06-19T09:34:39.393Z,12.17
2018-06-19T09:37:08.743Z,15.27
2018-06-19T09:39:38.005Z,10.97
2018-06-19T09:42:07.189Z,10.80
2018-06-19T09:44:36.528Z,10.67
2018-06-19T09:47:05.915Z,10.33
2018-06-19T09:49:38.285Z,12.80
2018-06-19T09:52:08.770Z,9.90
2018-06-19T09:54:38.237Z,12.30
2018-06-19T09:57:07.532Z,15.77
2018-06-19T09:59:36.918Z,16.53
2018-06-19T10:02:06.794Z,14.67
2018-06-19T10:04:36.019Z,14.87
2018-06-19T10:07:05.366Z,18.80
2018-06-19T10:09:34.717Z,16.93
2018-06-19T10:12:06.075Z,19.23
2018-06-19T10:14:35.292Z,25.33
2018-06-19T10:17:04.701Z,19.90
2018-06-19T10:19:34.143Z,21.50
2018-06-19T10:22:05.457Z,21.37
2018-06-19T10:24:35.851Z,21.70
2018-06-19T10:27:06.194Z,18.90
2018-06-19T10:29:36.755Z,20.50
2018-06-19T10:32:06.146Z,19.10
2018-06-19T10:34:35.433Z,20.37
2018-06-19T10:37:05.558Z,22.90
2018-06-19T10:39:35.385Z,23.63
2018-06-19T10:42:05.688Z,24.33
2018-06-19T10:44:35.308Z,26.10
2018-06-19T10:47:04.571Z,25.57
2018-06-19T10:49:34.005Z,30.20
2018-06-19T10:52:03.386Z,32.87
2018-06-19T10:54:32.726Z,26.80
2018-06-19T10:57:03.483Z,28.33
2018-06-19T10:59:32.727Z,27.50
2018-06-19T11:02:01.953Z,31.07
2018-06-19T11:04:32.688Z,29.33
2018-06-19T11:07:01.887Z,32.00
2018-06-19T11:09:31.135Z,30.70
2018-06-19T11:12:00.441Z,29.17
2018-06-19T11:14:29.618Z,32.30
2018-06-19T11:16:58.943Z,32.47
2018-06-19T11:19:28.160Z,34.83
2018-06-19T11:21:57.402Z,34.23
2018-06-19T11:24:27.605Z,36.30
2018-06-19T11:26:56.827Z,37.13
2018-06-19T11:29:26.185Z,34.80
2018-06-19T11:31:55.539Z,33.60
2018-06-19T11:34:24.815Z,35.43
2018-06-19T11:36:53.984Z,30.27
2018-06-19T11:39:23.198Z,30.20
2018-06-19T11:41:52.474Z,30.07
2018-06-19T11:44:21.701Z,28.77
2018-06-19T11:46:51.258Z,25.90
2018-06-19T11:49:20.557Z,24.70
2018-06-19T11:51:49.778Z,24.63
2018-06-19T11:54:19.032Z,21.23
2018-06-19T11:56:48.276Z,18.87
2018-06-19T11:59:17.501Z,20.13
2018-06-19T12:01:47.112Z,19.77
2018-06-19T12:04:16.389Z,19.00
2018-06-19T12:06:45.814Z,15.90
2018-06-19T12:09:15.017Z,16.97
2018-06-19T12:11:44.384Z,13.93
2018-06-19T12:14:13.628Z,14.03
2018-06-19T12:16:43.001Z,13.20
2018-06-19T12:19:12.435Z,13.27
2018-06-19T12:21:41.650Z,17.50
2018-06-19T12:24:10.985Z,12.77
2018-06-19T12:26:40.284Z,16.77
2018-06-19T12:29:09.640Z,14.20
2018-06-19T12:31:38.965Z,12.30
2018-06-19T12:34:08.364Z,16.30
2018-06-19T12:36:37.644Z,12.80
2018-06-19T12:39:08.996Z,11.63
2018-06-19T12:41:42.380Z,12.90
2018-06-19T12:44:11.613Z,13.63
2018-06-19T12:46:41.494Z,16.53
2018-06-19T12:49:11.123Z,15.83
2018-06-19T12:51:55.026Z,16.60
2018-06-19T12:56:31.845Z,15.97
2018-06-19T12:59:01.087Z,13.07
2018-06-19T13:01:30.308Z,11.30
2018-06-19T13:04:10.713Z,12.03
2018-06-19T13:06:40.040Z,11.70
2018-06-19T13:09:09.406Z,14.50
2018-06-19T13:11:38.640Z,12.03
2018-06-19T13:14:19.021Z,11.67
2018-06-19T13:16:59.311Z,11.80
2018-06-19T13:19:39.556Z,10.00
2018-06-19T13:22:08.821Z,12.93
2018-06-19T13:24:38.007Z,10.43
2018-06-19T13:27:07.386Z,11.53
2018-06-19T13:29:49.264Z,11.90
2018-06-19T13:32:18.850Z,10.70
2018-06-19T13:34:48.429Z,13.23
2018-06-19T13:37:17.666Z,18.83
2018-06-19T13:39:47.916Z,10.17
2018-06-19T13:44:32.406Z,11.07
2018-06-19T13:47:01.636Z,9.97
2018-06-19T13:49:30.904Z,13.60
2018-06-19T13:52:00.099Z,10.77
2018-06-19T13:54:29.311Z,9.20
2018-06-19T13:57:23.479Z,9.10
2018-06-19T13:59:52.698Z,8.50
2018-06-19T14:02:22.527Z,8.00
2018-06-19T14:04:51.885Z,8.27
2018-06-19T14:07:22.113Z,6.73
2018-06-19T14:10:17.898Z,7.20
2018-06-19T14:13:02.867Z,8.23
2018-06-19T14:15:35.245Z,6.20
2018-06-19T14:18:04.832Z,8.07
2018-06-19T14:20:34.301Z,6.90
2018-06-19T14:23:03.595Z,6.87
2018-06-19T14:25:32.958Z,8.10
2018-06-19T14:28:02.198Z,9.53
2018-06-19T14:30:31.400Z,7.73
2018-06-19T14:33:00.619Z,6.80
2018-06-19T14:35:29.835Z,9.77
2018-06-19T14:37:59.050Z,7.50
2018-06-19T14:40:28.384Z,10.00
2018-06-19T14:42:57.641Z,8.77
2018-06-19T14:45:26.872Z,7.90
2018-06-19T14:47:56.122Z,8.00
2018-06-19T14:50:25.379Z,7.17
2018-06-19T14:52:54.561Z,7.80
2018-06-19T14:55:23.861Z,7.17
2018-06-19T14:57:53.060Z,7.70
2018-06-19T15:00:22.304Z,6.07
2018-06-19T15:02:51.549Z,6.67
2018-06-19T15:05:20.776Z,6.70
2018-06-19T15:07:51.864Z,7.63
2018-06-19T15:10:21.312Z,6.57
2018-06-19T15:12:50.598Z,5.80
2018-06-19T15:15:19.796Z,10.63
2018-06-19T15:17:49.019Z,5.50
2018-06-19T15:20:18.306Z,9.60
2018-06-19T15:22:47.521Z,9.80
2018-06-19T15:25:16.772Z,4.50
2018-06-19T15:27:46.044Z,5.80
2018-06-19T15:30:15.305Z,6.73
2018-06-19T15:32:44.578Z,5.83
2018-06-19T15:35:13.845Z,5.50
2018-06-19T15:37:43.116Z,6.23
2018-06-19T15:40:12.321Z,5.17
2018-06-19T15:42:41.583Z,5.23
2018-06-19T15:45:11.922Z,4.90
2018-06-19T15:47:41.445Z,7.13
2018-06-19T15:50:10.729Z,7.70
2018-06-19T15:52:40.050Z,8.27
2018-06-19T15:55:09.303Z,5.57
2018-06-19T15:57:38.566Z,5.53
2018-06-19T16:00:07.923Z,5.37
2018-06-19T16:02:37.168Z,7.03
2018-06-19T16:05:06.666Z,4.90
2018-06-19T16:07:39.932Z,6.23
2018-06-19T16:10:09.189Z,5.50
2018-06-19T16:12:38.494Z,5.83
2018-06-19T16:15:07.734Z,6.90
2018-06-19T16:17:36.962Z,6.13
2018-06-19T16:20:06.300Z,6.20
2018-06-19T16:22:36.831Z,6.53
2018-06-19T16:25:06.492Z,6.77
2018-06-19T16:27:37.030Z,6.80
2018-06-19T16:30:06.465Z,5.37
2018-06-19T16:32:35.705Z,5.40
2018-06-19T16:35:05.094Z,6.20
2018-06-19T16:37:34.465Z,6.17
2018-06-19T16:40:03.861Z,6.80
2018-06-19T16:42:33.255Z,6.30
2018-06-19T16:45:02.760Z,6.17
2018-06-19T16:47:32.360Z,5.97
2018-06-19T16:50:01.600Z,6.93
2018-06-19T16:52:31.202Z,7.17
2018-06-19T16:55:00.739Z,8.13
2018-06-19T16:57:30.389Z,8.77
2018-06-19T16:59:59.779Z,6.80
2018-06-19T17:02:29.174Z,8.60
2018-06-19T17:04:58.487Z,6.40
2018-06-19T17:07:28.012Z,6.87
2018-06-19T17:09:57.310Z,7.00
2018-06-19T17:12:26.609Z,6.57
2018-06-19T17:14:55.900Z,7.57
2018-06-19T17:17:25.207Z,6.33
2018-06-19T17:19:54.579Z,7.67
2018-06-19T17:22:23.948Z,5.87
2018-06-19T17:24:53.328Z,6.63
2018-06-19T17:27:22.645Z,6.20
2018-06-19T17:29:51.892Z,5.50
2018-06-19T17:32:21.184Z,6.63
2018-06-19T17:34:50.589Z,12.43
2018-06-19T17:37:20.063Z,9.20
2018-06-19T17:39:49.369Z,5.63
2018-06-19T17:42:18.769Z,6.47
2018-06-19T17:44:48.083Z,5.80
2018-06-19T17:47:23.892Z,5.80
2018-06-19T17:49:53.506Z,5.17
2018-06-19T17:52:22.833Z,6.20
2018-06-19T17:54:52.067Z,5.30
2018-06-19T17:57:21.301Z,6.07
2018-06-19T17:59:51.715Z,5.80
2018-06-19T18:02:21.040Z,6.90
2018-06-19T18:04:54.912Z,5.53
2018-06-19T18:07:25.834Z,5.97
2018-06-19T18:09:55.277Z,5.00
2018-06-19T18:12:24.662Z,6.00
2018-06-19T18:14:53.949Z,4.57
2018-06-19T18:17:23.263Z,5.53
2018-06-19T18:19:52.655Z,5.60
2018-06-19T18:22:22.001Z,6.03
2018-06-19T18:24:51.288Z,4.90
2018-06-19T18:27:20.562Z,5.57
2018-06-19T18:29:49.842Z,6.40
2018-06-19T18:32:19.093Z,5.13
2018-06-19T18:34:48.511Z,6.73
2018-06-19T18:37:17.798Z,5.67
2018-06-19T18:39:47.088Z,5.30
2018-06-19T18:42:16.392Z,5.30
2018-06-19T18:44:45.674Z,5.20
2018-06-19T18:47:14.901Z,6.10
2018-06-19T18:49:44.156Z,8.00
2018-06-19T18:52:13.399Z,8.43
2018-06-19T18:54:42.659Z,5.77
2018-06-19T18:57:11.971Z,4.50
2018-06-19T18:59:41.241Z,4.93
2018-06-19T19:02:10.576Z,5.57
2018-06-19T19:04:39.815Z,6.03
2018-06-19T19:07:09.091Z,5.13
2018-06-19T19:09:42.771Z,5.97
2018-06-19T19:12:11.993Z,5.53
2018-06-19T19:14:46.547Z,5.63
2018-06-19T19:17:21.096Z,5.47
2018-06-19T19:19:50.442Z,6.90
2018-06-19T19:22:20.419Z,6.47
2018-06-19T19:24:49.728Z,5.97
2018-06-19T19:27:24.081Z,6.20
2018-06-19T19:29:58.672Z,7.63
2018-06-19T19:32:29.045Z,6.50
2018-06-19T19:34:58.278Z,5.47
2018-06-19T19:37:32.660Z,5.73
2018-06-19T19:40:04.476Z,7.30
2018-06-19T19:42:33.791Z,6.60
2018-06-19T19:45:03.192Z,6.70
2018-06-19T19:47:37.666Z,5.37
2018-06-19T19:50:06.974Z,5.13
2018-06-19T19:52:36.311Z,4.77
2018-06-19T19:55:05.571Z,5.67
2018-06-19T19:59:42.250Z,5.33
2018-06-19T20:02:11.524Z,5.33
2018-06-19T20:04:40.812Z,4.90
2018-06-19T20:07:10.080Z,5.47
2018-06-19T20:09:39.400Z,7.00
2018-06-19T20:12:08.877Z,6.47
2018-06-19T20:14:38.092Z,5.20
2018-06-19T20:17:07.409Z,5.80
2018-06-19T20:19:36.691Z,5.20
2018-06-19T20:22:05.977Z,5.97
2018-06-19T20:24:35.233Z,6.90
2018-06-19T20:27:04.523Z,6.07
2018-06-19T20:29:33.823Z,5.07
2018-06-19T20:32:03.207Z,5.63
2018-06-19T20:34:32.499Z,5.70
2018-06-19T20:37:01.891Z,5.90
2018-06-19T20:39:31.261Z,5.63
2018-06-19T20:42:01.378Z,4.53
2018-06-19T20:44:31.011Z,6.03
2018-06-19T20:47:00.367Z,5.27
2018-06-19T20:49:29.931Z,6.97
2018-06-19T20:51:59.378Z,5.40
2018-06-19T20:54:28.747Z,5.97
2018-06-19T20:56:57.998Z,6.20
2018-06-19T20:59:27.326Z,6.53
2018-06-19T21:01:56.706Z,7.23
2018-06-19T21:04:26.342Z,4.77
2018-06-19T21:06:55.682Z,7.10
2018-06-19T21:09:25.074Z,6.07
2018-06-19T21:11:54.326Z,4.47
2018-06-19T21:14:23.620Z,5.40
2018-06-19T21:16:52.911Z,5.07
2018-06-19T21:19:22.166Z,5.63
2018-06-19T21:21:51.485Z,7.70
2018-06-19T21:24:20.750Z,5.27
2018-06-19T21:26:50.067Z,6.07
2018-06-19T21:29:19.493Z,5.17
2018-06-19T21:31:48.777Z,5.30
2018-06-19T21:34:18.150Z,5.20
2018-06-19T21:36:47.599Z,5.10
2018-06-19T21:39:16.937Z,5.27
2018-06-19T21:41:46.273Z,4.43
2018-06-19T21:44:15.675Z,6.00
2018-06-19T21:46:45.548Z,5.00
2018-06-19T21:49:14.896Z,5.03
2018-06-19T21:51:44.218Z,5.63
2018-06-19T21:54:13.489Z,6.47
2018-06-19T21:56:42.847Z,5.60
2018-06-19T21:59:12.132Z,6.07
2018-06-19T22:01:41.468Z,5.70
2018-06-19T22:04:10.767Z,7.50
2018-06-19T22:06:39.997Z,5.67
2018-06-19T22:11:47.933Z,5.80
2018-06-19T22:14:17.195Z,8.17
2018-06-19T22:16:46.187Z,6.50
2018-06-19T22:19:15.422Z,5.53
2018-06-19T22:21:44.835Z,5.10
2018-06-19T22:24:14.149Z,5.07
2018-06-19T22:26:43.576Z,5.30
2018-06-19T22:29:12.865Z,5.27
2018-06-19T22:31:42.175Z,5.43
2018-06-19T22:34:11.462Z,4.83
2018-06-19T22:36:40.739Z,5.53
2018-06-19T22:39:09.690Z,5.33
2018-06-19T22:41:38.894Z,5.83
2018-06-19T22:44:08.199Z,7.10
2018-06-19T22:46:37.463Z,4.50
2018-06-19T22:49:06.797Z,4.93
2018-06-19T22:51:36.135Z,5.80
2018-06-19T22:54:05.417Z,6.07
2018-06-19T22:56:34.712Z,5.07
2018-06-19T22:59:05.220Z,5.23
2018-06-19T23:01:34.695Z,6.37
2018-06-19T23:04:04.086Z,5.40
2018-06-19T23:06:33.495Z,6.07
2018-06-19T23:09:02.794Z,8.40
2018-06-19T23:11:32.085Z,6.07
2018-06-19T23:14:01.438Z,5.17
2018-06-19T23:16:30.724Z,5.00
2018-06-19T23:19:00.031Z,4.50
2018-06-19T23:21:29.423Z,5.30
2018-06-19T23:23:58.714Z,5.67
2018-06-19T23:26:27.869Z,6.23
2018-06-19T23:28:57.159Z,6.40
2018-06-19T23:31:26.508Z,8.53
2018-06-19T23:33:55.971Z,6.17
2018-06-19T23:36:25.463Z,5.50
2018-06-19T23:38:54.782Z,7.83
2018-06-19T23:41:24.259Z,9.00
2018-06-19T23:43:53.554Z,4.80
2018-06-19T23:46:22.906Z,5.60
2018-06-19T23:48:52.305Z,7.20
2018-06-19T23:51:21.756Z,5.80
2018-06-19T23:53:51.050Z,6.00
2018-06-19T23:56:20.343Z,6.23
2018-06-19T23:58:49.644Z,5.33
